createdAt,value
2022-09-28T00:02:24.427Z,98575.28
2022-09-28T00:04:51.298Z,98577.88
2022-09-28T00:07:18.063Z,98573.44
2022-09-28T00:09:44.893Z,98582.75
2022-09-28T00:12:11.864Z,98584.94
2022-09-28T00:14:40.625Z,98589.28
2022-09-28T00:17:08.360Z,98592.25
2022-09-28T00:19:35.182Z,98596.38
2022-09-28T00:22:02.070Z,98600.91
2022-09-28T00:24:29.628Z,98585.91
2022-09-28T00:27:00.734Z,98593.59
2022-09-28T00:29:29.059Z,98596.84
2022-09-28T00:32:02.538Z,98595.81
2022-09-28T00:34:32.088Z,98591.19
2022-09-28T00:36:59.600Z,98586.78
2022-09-28T00:39:27.205Z,98593.44
2022-09-28T00:41:54.957Z,98597.19
2022-09-28T00:44:42.277Z,98593.38
2022-09-28T00:47:31.309Z,98591.66
2022-09-28T00:49:58.223Z,98602.97
2022-09-28T00:52:53.323Z,98597.19
2022-09-28T00:55:27.050Z,98597.69
2022-09-28T00:57:58.383Z,98597.81
2022-09-28T01:00:25.904Z,98607.94
2022-09-28T01:02:53.148Z,98601.38
2022-09-28T01:05:20.997Z,98607.78
2022-09-28T01:07:48.696Z,98594.47
2022-09-28T01:10:15.932Z,98597.41
2022-09-28T01:12:45.949Z,98598.09
2022-09-28T01:15:15.436Z,98590.28
2022-09-28T01:17:52.314Z,98585.13
2022-09-28T01:20:22.678Z,98590.66
2022-09-28T01:23:08.307Z,98598.13
2022-09-28T01:25:38.425Z,98592.59
2022-09-28T01:28:12.133Z,98594.66
2022-09-28T01:30:47.217Z,98594.66
2022-09-28T01:33:22.557Z,98594.41
2022-09-28T01:36:07.501Z,98597.59
2022-09-28T01:38:48.284Z,98589.50
2022-09-28T01:41:17.951Z,98597.41
2022-09-28T01:43:54.866Z,98602.22
2022-09-28T01:46:27.448Z,98597.78
2022-09-28T01:48:57.881Z,98590.28
2022-09-28T01:51:38.100Z,98586.97
2022-09-28T01:54:14.123Z,98582.09
2022-09-28T01:57:07.078Z,98582.53
2022-09-28T01:59:36.872Z,98581.22
2022-09-28T02:02:10.145Z,98588.41
2022-09-28T02:04:42.914Z,98580.75
2022-09-28T02:07:21.216Z,98574.47
2022-09-28T02:09:56.133Z,98566.47
2022-09-28T02:12:33.060Z,98559.28
2022-09-28T02:15:12.691Z,98589.31
2022-09-28T02:17:40.065Z,98586.72
2022-09-28T02:20:07.850Z,98584.50
2022-09-28T02:22:43.967Z,98590.06
2022-09-28T02:25:30.294Z,98599.66
2022-09-28T02:28:04.786Z,98591.78
2022-09-28T02:30:33.530Z,98600.69
2022-09-28T02:33:07.538Z,98596.09
2022-09-28T02:35:35.510Z,98598.59
2022-09-28T02:38:02.887Z,98601.78
2022-09-28T02:40:33.214Z,98609.81
2022-09-28T02:43:24.024Z,98623.88
2022-09-28T02:46:03.631Z,98621.63
2022-09-28T02:49:22.378Z,98623.84
2022-09-28T02:52:19.478Z,98627.06
2022-09-28T02:55:00.196Z,98625.78
2022-09-28T02:57:48.517Z,98618.59
2022-09-28T03:00:22.362Z,98619.66
2022-09-28T03:03:06.120Z,98613.00
2022-09-28T03:05:50.017Z,98620.28
2022-09-28T03:08:41.073Z,98622.81
2022-09-28T03:11:28.609Z,98614.44
2022-09-28T03:13:56.293Z,98614.28
2022-09-28T03:16:32.198Z,98613.56
2022-09-28T03:18:59.578Z,98620.22
2022-09-28T03:21:26.474Z,98617.22
2022-09-28T03:23:53.322Z,98617.44
2022-09-28T03:26:20.246Z,98608.03
2022-09-28T03:28:47.290Z,98613.47
2022-09-28T03:31:21.064Z,98612.25
2022-09-28T03:33:48.136Z,98617.25
2022-09-28T03:36:15.319Z,98618.78
2022-09-28T03:38:43.388Z,98617.66
2022-09-28T03:41:11.104Z,98622.00
2022-09-28T03:43:41.250Z,98625.66
2022-09-28T03:46:08.411Z,98625.56
2022-09-28T03:48:40.808Z,98622.78
2022-09-28T03:51:11.162Z,98626.09
2022-09-28T03:53:39.709Z,98630.78
2022-09-28T03:56:15.379Z,98626.41
2022-09-28T03:58:42.998Z,98631.59
2022-09-28T04:01:16.999Z,98631.91
2022-09-28T04:03:46.783Z,98626.44
2022-09-28T04:06:14.773Z,98624.44
2022-09-28T04:08:43.166Z,98628.56
2022-09-28T04:11:10.415Z,98624.25
2022-09-28T04:13:37.459Z,98621.91
2022-09-28T04:16:06.676Z,98625.56
2022-09-28T04:18:35.293Z,98631.53
2022-09-28T04:21:14.641Z,98624.03
2022-09-28T04:23:46.234Z,98630.47
2022-09-28T04:26:25.113Z,98627.31
2022-09-28T04:29:10.732Z,98639.47
2022-09-28T04:31:46.929Z,98629.25
2022-09-28T04:34:17.547Z,98635.59
2022-09-28T04:36:45.418Z,98646.66
2022-09-28T04:39:14.819Z,98629.69
2022-09-28T04:41:47.321Z,98645.00
2022-09-28T04:44:14.481Z,98646.53
2022-09-28T04:46:41.300Z,98655.19
2022-09-28T04:49:26.771Z,98652.88
2022-09-28T04:51:56.493Z,98661.19
2022-09-28T04:54:23.321Z,98667.78
2022-09-28T04:56:51.263Z,98671.94
2022-09-28T04:59:18.213Z,98674.56
2022-09-28T05:01:45.360Z,98677.38
2022-09-28T05:04:33.278Z,98680.09
2022-09-28T05:07:18.278Z,98680.03
2022-09-28T05:09:45.180Z,98687.47
2022-09-28T05:12:11.999Z,98686.72
2022-09-28T05:14:39.023Z,98695.09
2022-09-28T05:17:06.034Z,98682.28
2022-09-28T05:19:39.705Z,98695.16
2022-09-28T05:22:11.441Z,98696.91
2022-09-28T05:24:42.822Z,98695.13
2022-09-28T05:27:09.884Z,98689.38
2022-09-28T05:29:36.769Z,98685.03
2022-09-28T05:32:42.155Z,98696.25
2022-09-28T05:35:21.026Z,98696.13
2022-09-28T05:37:48.709Z,98700.41
2022-09-28T05:40:16.277Z,98700.06
2022-09-28T05:42:43.358Z,98685.41
2022-09-28T05:45:10.839Z,98703.31
2022-09-28T05:47:41.947Z,98701.84
2022-09-28T05:50:16.064Z,98705.75
2022-09-28T05:52:43.888Z,98712.66
2022-09-28T05:55:11.432Z,98713.09
2022-09-28T05:57:38.904Z,98715.31
2022-09-28T06:00:09.357Z,98719.09
2022-09-28T06:03:05.384Z,98725.91
2022-09-28T06:05:36.351Z,98727.38
2022-09-28T06:08:05.404Z,98737.09
2022-09-28T06:10:33.500Z,98744.28
2022-09-28T06:13:01.595Z,98743.81
2022-09-28T06:15:30.909Z,98746.75
2022-09-28T06:18:00.742Z,98749.50
2022-09-28T06:21:01.382Z,98747.28
2022-09-28T06:23:34.666Z,98744.91
2022-09-28T06:26:01.522Z,98741.72
2022-09-28T06:28:30.161Z,98750.38
2022-09-28T06:31:00.567Z,98765.72
2022-09-28T06:33:28.191Z,98759.41
2022-09-28T06:35:55.117Z,98753.06
2022-09-28T06:38:22.031Z,98755.72
2022-09-28T06:40:49.644Z,98757.63
2022-09-28T06:43:16.602Z,98753.28
2022-09-28T06:46:02.755Z,98755.91
2022-09-28T06:48:29.740Z,98755.03
2022-09-28T06:50:56.892Z,98741.97
2022-09-28T06:53:48.659Z,98752.44
2022-09-28T06:56:32.693Z,98739.31
2022-09-28T06:59:00.133Z,98743.56
2022-09-28T07:01:28.821Z,98740.94
2022-09-28T07:04:28.447Z,98740.09
2022-09-28T07:07:33.217Z,98743.19
2022-09-28T07:10:15.688Z,98738.84
2022-09-28T07:13:03.603Z,98740.88
2022-09-28T07:15:39.220Z,98733.00
2022-09-28T07:18:07.426Z,98733.00
2022-09-28T07:20:45.672Z,98734.19
2022-09-28T07:23:19.762Z,98730.91
2022-09-28T07:26:23.987Z,98735.59
2022-09-28T07:29:21.412Z,98742.44
2022-09-28T07:32:11.088Z,98748.59
2022-09-28T07:34:58.728Z,98742.81
2022-09-28T07:37:46.347Z,98745.81
2022-09-28T07:40:31.721Z,98744.59
2022-09-28T07:43:06.677Z,98742.47
2022-09-28T07:45:37.659Z,98746.00
2022-09-28T07:48:05.239Z,98735.56
2022-09-28T07:51:04.531Z,98749.94
2022-09-28T07:53:44.550Z,98749.97
2022-09-28T07:56:31.058Z,98750.19
2022-09-28T07:59:20.948Z,98750.31
2022-09-28T08:02:06.471Z,98747.69
2022-09-28T08:04:33.410Z,98745.34
2022-09-28T08:07:00.463Z,98743.22
2022-09-28T08:09:27.324Z,98741.47
2022-09-28T08:12:14.167Z,98744.00
2022-09-28T08:15:16.572Z,98747.47
2022-09-28T08:18:06.675Z,98736.25
2022-09-28T08:20:52.595Z,98739.09
2022-09-28T08:23:20.442Z,98728.63
2022-09-28T08:25:52.634Z,98734.88
2022-09-28T08:28:22.702Z,98724.31
2022-09-28T08:30:52.418Z,98717.34
2022-09-28T08:33:31.565Z,98725.06
2022-09-28T08:36:16.842Z,98732.59
2022-09-28T08:39:01.465Z,98720.00
2022-09-28T08:42:02.337Z,98737.81
2022-09-28T08:45:23.184Z,98735.22
2022-09-28T08:49:24.160Z,98731.47
2022-09-28T08:52:30.265Z,98732.03
2022-09-28T08:55:04.979Z,98731.53
2022-09-28T08:57:55.613Z,98732.84
2022-09-28T09:00:33.656Z,98737.66
2022-09-28T09:03:06.716Z,98741.84
2022-09-28T09:06:18.730Z,98735.22
2022-09-28T09:09:36.602Z,98723.28
2022-09-28T09:12:10.002Z,98734.47
2022-09-28T09:15:01.372Z,98734.75
2022-09-28T09:17:59.212Z,98728.84
2022-09-28T09:21:02.874Z,98736.78
2022-09-28T09:23:54.240Z,98736.91
2022-09-28T09:26:35.283Z,98733.06
2022-09-28T09:29:20.865Z,98737.84
2022-09-28T09:32:03.104Z,98727.53
2022-09-28T09:34:38.060Z,98725.19
2022-09-28T09:37:37.616Z,98726.81
2022-09-28T09:40:38.791Z,98729.72
2022-09-28T09:43:47.792Z,98727.19
2022-09-28T09:47:08.201Z,98729.66
2022-09-28T09:50:05.447Z,98739.56
2022-09-28T09:52:52.067Z,98732.09
2022-09-28T09:55:34.485Z,98724.13
2022-09-28T09:58:38.580Z,98715.19
2022-09-28T10:01:19.501Z,98708.44
2022-09-28T10:04:20.625Z,98713.03
2022-09-28T10:06:51.656Z,98713.28
2022-09-28T10:09:30.508Z,98704.19
2022-09-28T10:12:15.795Z,98705.13
2022-09-28T10:14:42.624Z,98706.97
2022-09-28T10:17:12.112Z,98709.56
2022-09-28T10:19:57.308Z,98704.00
2022-09-28T10:22:51.860Z,98701.91
2022-09-28T10:25:20.067Z,98705.78
2022-09-28T10:27:51.485Z,98701.84
2022-09-28T10:30:25.425Z,98699.00
2022-09-28T10:32:55.558Z,98702.44
2022-09-28T10:35:27.167Z,98703.03
2022-09-28T10:38:01.776Z,98701.59
2022-09-28T10:41:01.783Z,98693.84
2022-09-28T10:44:06.446Z,98683.94
2022-09-28T10:46:43.377Z,98685.06
2022-09-28T10:49:18.879Z,98676.53
2022-09-28T10:51:56.230Z,98674.84
2022-09-28T10:54:32.173Z,98672.19
2022-09-28T10:57:01.054Z,98675.63
2022-09-28T10:59:39.967Z,98668.38
2022-09-28T11:02:30.389Z,98676.81
2022-09-28T11:05:06.738Z,98674.28
2022-09-28T11:07:48.049Z,98667.44
2022-09-28T11:10:28.384Z,98663.94
2022-09-28T11:13:00.180Z,98662.94
2022-09-28T11:15:33.339Z,98659.53
2022-09-28T11:18:29.011Z,98667.59
2022-09-28T11:21:17.320Z,98665.69
2022-09-28T11:24:07.566Z,98656.13
2022-09-28T11:26:48.079Z,98647.72
2022-09-28T11:29:38.071Z,98643.63
2022-09-28T11:32:28.202Z,98640.38
2022-09-28T11:35:33.331Z,98645.44
2022-09-28T11:38:36.506Z,98640.69
2022-09-28T11:41:23.362Z,98631.63
2022-09-28T11:44:02.525Z,98642.38
2022-09-28T11:47:04.908Z,98629.13
2022-09-28T11:49:40.144Z,98628.75
2022-09-28T11:52:17.877Z,98629.47
2022-09-28T11:54:52.638Z,98619.56
2022-09-28T11:57:24.071Z,98622.06
2022-09-28T12:00:01.862Z,98629.91
2022-09-28T12:02:36.929Z,98619.84
2022-09-28T12:05:20.003Z,98619.19
2022-09-28T12:07:54.611Z,98618.28
2022-09-28T12:10:55.542Z,98608.16
2022-09-28T12:13:47.770Z,98602.38
2022-09-28T12:20:21.148Z,98599.19
2022-09-28T12:23:01.230Z,98594.19
2022-09-28T12:25:34.378Z,98601.72
2022-09-28T12:28:12.997Z,98593.16
2022-09-28T12:30:43.893Z,98592.47
2022-09-28T12:33:15.575Z,98590.56
2022-09-28T12:35:54.522Z,98593.25
2022-09-28T12:38:42.551Z,98598.06
2022-09-28T12:41:32.655Z,98584.25
2022-09-28T12:44:33.217Z,98585.63
2022-09-28T12:47:19.206Z,98591.88
2022-09-28T12:53:15.814Z,98578.38
2022-09-28T12:55:56.410Z,98577.53
2022-09-28T12:58:41.253Z,98576.56
2022-09-28T13:01:25.796Z,98575.09
2022-09-28T13:03:52.611Z,98569.97
2022-09-28T13:06:19.347Z,98573.53
2022-09-28T13:09:10.293Z,98569.84
2022-09-28T13:11:43.982Z,98572.03
2022-09-28T13:14:30.610Z,98579.06
2022-09-28T13:17:17.675Z,98569.22
2022-09-28T13:19:55.517Z,98578.28
2022-09-28T13:22:35.265Z,98581.78
2022-09-28T13:25:14.667Z,98572.28
2022-09-28T13:27:49.900Z,98581.53
2022-09-28T13:30:19.540Z,98580.47
2022-09-28T13:32:48.504Z,98573.66
2022-09-28T13:35:20.604Z,98577.16
2022-09-28T13:37:48.878Z,98580.47
2022-09-28T13:40:15.783Z,98577.72
2022-09-28T13:42:42.658Z,98577.44
2022-09-28T13:45:22.021Z,98579.06
2022-09-28T13:47:54.504Z,98566.16
2022-09-28T13:50:27.675Z,98571.41
2022-09-28T13:53:01.292Z,98577.31
2022-09-28T13:55:33.817Z,98572.69
2022-09-28T13:58:14.706Z,98568.94
2022-09-28T14:00:51.575Z,98560.00
2022-09-28T14:03:24.383Z,98561.38
2022-09-28T14:06:00.831Z,98566.53
2022-09-28T14:08:38.595Z,98569.22
2022-09-28T14:11:40.330Z,98570.63
2022-09-28T14:14:13.975Z,98572.41
2022-09-28T14:16:42.447Z,98566.41
2022-09-28T14:19:15.859Z,98565.19
2022-09-28T14:21:51.736Z,98569.06
2022-09-28T14:24:31.935Z,98562.69
2022-09-28T14:27:01.605Z,98576.69
2022-09-28T14:29:39.230Z,98570.63
2022-09-28T14:32:08.716Z,98578.78
2022-09-28T14:34:41.040Z,98572.16
2022-09-28T14:37:41.624Z,98574.41
2022-09-28T14:40:38.954Z,98577.88
2022-09-28T14:43:42.841Z,98573.31
2022-09-28T14:46:15.559Z,98578.44
2022-09-28T14:48:53.783Z,98582.03
2022-09-28T14:51:26.520Z,98576.03
2022-09-28T14:53:55.508Z,98577.81
2022-09-28T14:56:22.549Z,98573.38
2022-09-28T14:58:55.054Z,98576.19
2022-09-28T15:01:24.795Z,98578.13
2022-09-28T15:03:56.320Z,98573.47
2022-09-28T15:06:23.475Z,98584.75
2022-09-28T15:08:50.425Z,98579.56
2022-09-28T15:11:23.676Z,98585.91
2022-09-28T15:13:54.037Z,98589.13
2022-09-28T15:16:24.579Z,98583.19
2022-09-28T15:19:09.705Z,98587.72
2022-09-28T15:21:43.935Z,98584.38
2022-09-28T15:25:01.442Z,98587.28
2022-09-28T15:27:39.304Z,98585.28
2022-09-28T15:30:25.619Z,98586.75
2022-09-28T15:33:19.316Z,98596.13
2022-09-28T15:35:49.898Z,98593.47
2022-09-28T15:38:17.645Z,98597.72
2022-09-28T15:40:45.930Z,98599.13
2022-09-28T15:43:32.994Z,98599.03
2022-09-28T15:46:21.173Z,98599.88
2022-09-28T15:48:55.591Z,98600.19
2022-09-28T15:51:24.702Z,98593.34
2022-09-28T15:54:25.504Z,98598.06
2022-09-28T15:56:55.385Z,98611.03
2022-09-28T15:59:30.906Z,98602.44
2022-09-28T16:02:19.472Z,98609.06
2022-09-28T16:04:50.421Z,98612.13
2022-09-28T16:07:23.338Z,98612.59
2022-09-28T16:10:01.851Z,98606.41
2022-09-28T16:12:43.369Z,98604.28
2022-09-28T16:15:18.284Z,98606.75
2022-09-28T16:18:03.158Z,98615.81
2022-09-28T16:20:36.510Z,98609.56
2022-09-28T16:23:30.810Z,98612.97
2022-09-28T16:26:28.761Z,98624.13
2022-09-28T16:28:55.685Z,98617.13
2022-09-28T16:31:27.436Z,98619.06
2022-09-28T16:33:55.888Z,98618.50
2022-09-28T16:36:25.922Z,98626.47
2022-09-28T16:38:54.403Z,98624.28
2022-09-28T16:41:25.993Z,98635.41
2022-09-28T16:44:02.443Z,98634.00
2022-09-28T16:46:37.499Z,98635.22
2022-09-28T16:49:06.871Z,98633.56
2022-09-28T16:51:33.823Z,98638.00
2022-09-28T16:54:32.173Z,98644.25
2022-09-28T16:56:59.311Z,98639.81
2022-09-28T16:59:26.216Z,98648.44
2022-09-28T17:01:53.131Z,98642.06
2022-09-28T17:06:46.884Z,98653.63
2022-09-28T17:09:13.740Z,98661.03
2022-09-28T17:11:40.604Z,98655.31
2022-09-28T17:14:08.887Z,98663.28
2022-09-28T17:17:06.159Z,98662.88
2022-09-28T17:19:25.135Z,98670.19
2022-09-28T17:21:53.106Z,98644.38
2022-09-28T17:24:20.734Z,98663.81
2022-09-28T17:26:50.229Z,98662.41
2022-09-28T17:29:17.826Z,98652.72
2022-09-28T17:31:46.181Z,98660.84
2022-09-28T17:34:15.273Z,98655.91
2022-09-28T17:36:43.344Z,98663.22
2022-09-28T17:39:15.735Z,98658.53
2022-09-28T17:41:42.654Z,98655.66
2022-09-28T17:44:09.738Z,98662.63
2022-09-28T17:46:40.827Z,98657.25
2022-09-28T17:49:11.682Z,98661.56
2022-09-28T17:51:38.761Z,98662.91
2022-09-28T17:54:07.639Z,98673.00
2022-09-28T17:56:35.380Z,98658.16
2022-09-28T17:59:07.644Z,98662.25
2022-09-28T18:01:37.899Z,98666.88
2022-09-28T18:04:08.129Z,98660.38
2022-09-28T18:06:37.276Z,98664.91
2022-09-28T18:09:05.441Z,98679.44
2022-09-28T18:11:33.635Z,98677.56
2022-09-28T18:14:00.900Z,98675.53
2022-09-28T18:16:28.884Z,98681.56
2022-09-28T18:18:56.037Z,98673.34
2022-09-28T18:21:22.958Z,98673.53
2022-09-28T18:23:51.053Z,98684.84
2022-09-28T18:26:21.062Z,98678.66
2022-09-28T18:28:54.295Z,98687.25
2022-09-28T18:31:21.503Z,98677.38
2022-09-28T18:36:35.743Z,98669.56
2022-09-28T18:39:03.063Z,98674.75
2022-09-28T18:41:29.944Z,98677.03
2022-09-28T18:44:02.823Z,98673.50
2022-09-28T18:46:34.771Z,98695.19
2022-09-28T18:49:01.961Z,98721.53
2022-09-28T18:51:29.260Z,98724.53
2022-09-28T18:53:56.198Z,98724.00
2022-09-28T18:56:23.031Z,98734.28
2022-09-28T18:58:51.710Z,98742.13
2022-09-28T19:01:36.556Z,98743.06
2022-09-28T19:04:06.160Z,98736.69
2022-09-28T19:06:34.406Z,98751.94
2022-09-28T19:09:02.015Z,98742.19
2022-09-28T19:11:28.965Z,98759.38
2022-09-28T19:13:56.433Z,98757.91
2022-09-28T19:16:29.995Z,98763.41
2022-09-28T19:18:58.395Z,98761.00
2022-09-28T19:21:25.693Z,98758.97
2022-09-28T19:23:55.143Z,98744.31
2022-09-28T19:26:25.336Z,98751.94
2022-09-28T19:28:52.722Z,98745.91
2022-09-28T19:31:19.922Z,98745.53
2022-09-28T19:33:48.242Z,98741.75
2022-09-28T19:36:18.520Z,98748.63
2022-09-28T19:38:46.314Z,98762.22
2022-09-28T19:41:39.334Z,98761.56
2022-09-28T19:44:21.282Z,98765.94
2022-09-28T19:46:48.140Z,98773.22
2022-09-28T19:49:22.683Z,98772.88
2022-09-28T19:52:11.658Z,98769.97
2022-09-28T19:54:38.175Z,98762.50
2022-09-28T19:57:08.053Z,98767.44
2022-09-28T19:59:36.776Z,98767.88
2022-09-28T20:02:05.837Z,98764.75
2022-09-28T20:04:32.764Z,98768.25
2022-09-28T20:06:59.753Z,98785.22
2022-09-28T20:09:26.647Z,98778.50
2022-09-28T20:11:53.473Z,98781.72
2022-09-28T20:14:22.440Z,98786.06
2022-09-28T20:16:51.586Z,98799.00
2022-09-28T20:19:21.500Z,98804.47
2022-09-28T20:21:48.848Z,98803.91
2022-09-28T20:24:17.334Z,98802.22
2022-09-28T20:26:46.038Z,98802.13
2022-09-28T20:29:13.465Z,98798.09
2022-09-28T20:31:40.482Z,98804.09
2022-09-28T20:34:07.485Z,98806.38
2022-09-28T20:36:34.562Z,98808.06
2022-09-28T20:39:02.276Z,98812.31
2022-09-28T20:41:36.768Z,98813.41
2022-09-28T20:44:06.374Z,98816.22
2022-09-28T20:46:35.605Z,98807.22
2022-09-28T20:49:03.650Z,98806.50
2022-09-28T20:51:31.168Z,98814.22
2022-09-28T20:53:59.169Z,98813.78
2022-09-28T20:56:31.675Z,98807.13
2022-09-28T20:58:58.521Z,98809.19
2022-09-28T21:01:27.896Z,98816.66
2022-09-28T21:04:00.195Z,98802.66
2022-09-28T21:06:29.874Z,98816.22
2022-09-28T21:08:56.855Z,98816.22
2022-09-28T21:11:25.737Z,98820.03
2022-09-28T21:13:54.797Z,98813.47
2022-09-28T21:16:21.757Z,98818.56
2022-09-28T21:18:48.592Z,98820.25
2022-09-28T21:21:18.172Z,98820.75
2022-09-28T21:23:45.532Z,98828.03
2022-09-28T21:26:24.534Z,98801.63
2022-09-28T21:28:56.063Z,98815.59
2022-09-28T21:31:28.718Z,98811.38
2022-09-28T21:33:59.642Z,98802.28
2022-09-28T21:36:26.517Z,98810.25
2022-09-28T21:38:56.184Z,98804.50
2022-09-28T21:41:24.302Z,98809.03
2022-09-28T21:43:51.247Z,98809.88
2022-09-28T21:46:18.284Z,98820.22
2022-09-28T21:48:45.352Z,98811.78
2022-09-28T21:51:15.906Z,98803.44
2022-09-28T21:53:42.905Z,98808.22
2022-09-28T21:56:12.146Z,98799.19
2022-09-28T21:58:40.198Z,98813.31
2022-09-28T22:01:16.928Z,98816.22
2022-09-28T22:03:47.449Z,98813.22
2022-09-28T22:06:16.295Z,98807.06
2022-09-28T22:08:43.365Z,98823.19
2022-09-28T22:11:14.058Z,98808.69
2022-09-28T22:13:43.765Z,98811.31
2022-09-28T22:16:12.035Z,98800.72
2022-09-28T22:18:39.709Z,98798.56
2022-09-28T22:21:11.464Z,98804.63
2022-09-28T22:23:39.029Z,98800.50
2022-09-28T22:26:10.873Z,98809.06
2022-09-28T22:28:39.774Z,98810.66
2022-09-28T22:31:06.680Z,98801.50
2022-09-28T22:33:34.183Z,98807.63
2022-09-28T22:36:01.117Z,98801.69
2022-09-28T22:38:32.162Z,98818.88
2022-09-28T22:40:59.062Z,98822.66
2022-09-28T22:43:26.973Z,98802.53
2022-09-28T22:46:11.909Z,98823.69
2022-09-28T22:48:39.115Z,98820.84
2022-09-28T22:51:07.178Z,98816.72
2022-09-28T22:53:35.268Z,98830.63
2022-09-28T22:56:05.684Z,98828.22
2022-09-28T22:58:34.142Z,98825.91
2022-09-28T23:01:11.382Z,98837.16
2022-09-28T23:03:42.299Z,98838.38
2022-09-28T23:06:11.337Z,98831.75
2022-09-28T23:08:39.055Z,98833.69
2022-09-28T23:11:06.578Z,98844.72
2022-09-28T23:13:33.428Z,98843.59
2022-09-28T23:16:03.280Z,98837.78
2022-09-28T23:18:33.017Z,98844.31
2022-09-28T23:21:02.138Z,98855.88
2022-09-28T23:23:29.635Z,98847.72
2022-09-28T23:25:57.259Z,98847.16
2022-09-28T23:28:26.198Z,98846.63
2022-09-28T23:30:53.914Z,98848.13
2022-09-28T23:33:21.683Z,98851.38
2022-09-28T23:35:49.509Z,98843.34
2022-09-28T23:38:18.364Z,98849.22
2022-09-28T23:40:46.817Z,98833.41
2022-09-28T23:43:14.657Z,98835.78
2022-09-28T23:45:44.711Z,98833.69
2022-09-28T23:48:12.854Z,98833.47
2022-09-28T23:50:39.632Z,98835.16
2022-09-28T23:53:06.671Z,98820.84
2022-09-28T23:55:33.534Z,98819.34
2022-09-28T23:58:00.424Z,98814.66
